sensor_id;sensor_type;location;lat;lon;timestamp;temperature;humidity
69503;SHT31;56704;54.242;12.442;2023-12-20T00:00:08;5.53;95.89
69503;SHT31;56704;54.242;12.442;2023-12-20T00:02:35;5.52;95.83
69503;SHT31;56704;54.242;12.442;2023-12-20T00:05:02;5.49;95.83
69503;SHT31;56704;54.242;12.442;2023-12-20T00:07:28;5.46;95.76
69503;SHT31;56704;54.242;12.442;2023-12-20T00:09:55;5.42;95.79
69503;SHT31;56704;54.242;12.442;2023-12-20T00:12:23;5.39;95.79
69503;SHT31;56704;54.242;12.442;2023-12-20T00:14:50;5.38;95.80
69503;SHT31;56704;54.242;12.442;2023-12-20T00:17:16;5.31;95.75
69503;SHT31;56704;54.242;12.442;2023-12-20T00:19:43;5.32;95.78
69503;SHT31;56704;54.242;12.442;2023-12-20T00:22:09;5.28;95.79
69503;SHT31;56704;54.242;12.442;2023-12-20T00:24:36;5.24;95.79
69503;SHT31;56704;54.242;12.442;2023-12-20T00:27:03;5.21;95.81
69503;SHT31;56704;54.242;12.442;2023-12-20T00:29:31;5.15;95.80
69503;SHT31;56704;54.242;12.442;2023-12-20T00:31:58;5.12;95.92
69503;SHT31;56704;54.242;12.442;2023-12-20T00:34:24;5.09;95.89
69503;SHT31;56704;54.242;12.442;2023-12-20T00:36:51;5.08;95.93
69503;SHT31;56704;54.242;12.442;2023-12-20T00:39:17;5.02;95.89
69503;SHT31;56704;54.242;12.442;2023-12-20T00:41:44;4.98;95.90
69503;SHT31;56704;54.242;12.442;2023-12-20T00:44:11;4.99;95.89
69503;SHT31;56704;54.242;12.442;2023-12-20T00:46:38;4.89;95.93
69503;SHT31;56704;54.242;12.442;2023-12-20T00:49:05;4.89;95.92
69503;SHT31;56704;54.242;12.442;2023-12-20T00:51:32;4.83;95.94
69503;SHT31;56704;54.242;12.442;2023-12-20T00:53:58;4.80;96.03
69503;SHT31;56704;54.242;12.442;2023-12-20T00:56:25;4.81;96.08
69503;SHT31;56704;54.242;12.442;2023-12-20T00:58:51;4.77;96.04
69503;SHT31;56704;54.242;12.442;2023-12-20T01:01:18;4.74;96.11
69503;SHT31;56704;54.242;12.442;2023-12-20T01:03:46;4.74;96.13
69503;SHT31;56704;54.242;12.442;2023-12-20T01:06:13;4.77;96.24
69503;SHT31;56704;54.242;12.442;2023-12-20T01:08:41;4.73;96.23
69503;SHT31;56704;54.242;12.442;2023-12-20T01:11:07;4.76;96.11
69503;SHT31;56704;54.242;12.442;2023-12-20T01:13:35;4.71;96.10
69503;SHT31;56704;54.242;12.442;2023-12-20T01:16:02;4.67;96.03
69503;SHT31;56704;54.242;12.442;2023-12-20T01:18:29;4.64;96.02
69503;SHT31;56704;54.242;12.442;2023-12-20T01:21:01;4.64;96.22
69503;SHT31;56704;54.242;12.442;2023-12-20T01:23:28;4.66;96.20
69503;SHT31;56704;54.242;12.442;2023-12-20T01:25:54;4.68;96.24
69503;SHT31;56704;54.242;12.442;2023-12-20T01:28:21;4.68;96.28
69503;SHT31;56704;54.242;12.442;2023-12-20T01:30:48;4.68;96.28
69503;SHT31;56704;54.242;12.442;2023-12-20T01:33:14;4.73;96.29
69503;SHT31;56704;54.242;12.442;2023-12-20T01:35:41;4.70;96.24
69503;SHT31;56704;54.242;12.442;2023-12-20T01:38:09;4.67;96.22
69503;SHT31;56704;54.242;12.442;2023-12-20T01:40:35;4.68;96.22
69503;SHT31;56704;54.242;12.442;2023-12-20T01:43:07;4.67;96.20
69503;SHT31;56704;54.242;12.442;2023-12-20T01:45:33;4.67;96.14
69503;SHT31;56704;54.242;12.442;2023-12-20T01:48:00;4.70;96.13
69503;SHT31;56704;54.242;12.442;2023-12-20T01:50:28;4.71;95.93
69503;SHT31;56704;54.242;12.442;2023-12-20T01:52:55;4.71;95.73
69503;SHT31;56704;54.242;12.442;2023-12-20T01:55:24;4.74;95.68
69503;SHT31;56704;54.242;12.442;2023-12-20T01:57:51;4.77;95.48
69503;SHT31;56704;54.242;12.442;2023-12-20T02:00:18;4.83;95.19
69503;SHT31;56704;54.242;12.442;2023-12-20T02:02:48;4.80;95.10
69503;SHT31;56704;54.242;12.442;2023-12-20T02:05:17;4.83;94.95
69503;SHT31;56704;54.242;12.442;2023-12-20T02:07:44;4.84;94.87
69503;SHT31;56704;54.242;12.442;2023-12-20T02:10:11;4.84;94.96
69503;SHT31;56704;54.242;12.442;2023-12-20T02:12:40;4.84;94.92
69503;SHT31;56704;54.242;12.442;2023-12-20T02:15:07;4.84;94.86
69503;SHT31;56704;54.242;12.442;2023-12-20T02:17:34;4.88;94.84
69503;SHT31;56704;54.242;12.442;2023-12-20T02:20:00;4.88;94.64
69503;SHT31;56704;54.242;12.442;2023-12-20T02:22:29;4.88;94.60
69503;SHT31;56704;54.242;12.442;2023-12-20T02:24:55;4.97;94.43
69503;SHT31;56704;54.242;12.442;2023-12-20T02:27:23;4.97;94.20
69503;SHT31;56704;54.242;12.442;2023-12-20T02:29:50;5.01;94.17
69503;SHT31;56704;54.242;12.442;2023-12-20T02:32:17;5.04;94.11
69503;SHT31;56704;54.242;12.442;2023-12-20T02:34:46;4.99;93.96
69503;SHT31;56704;54.242;12.442;2023-12-20T02:37:13;5.01;93.92
69503;SHT31;56704;54.242;12.442;2023-12-20T02:39:41;5.05;93.92
69503;SHT31;56704;54.242;12.442;2023-12-20T02:42:08;5.04;93.97
69503;SHT31;56704;54.242;12.442;2023-12-20T02:44:34;5.05;94.02
69503;SHT31;56704;54.242;12.442;2023-12-20T02:47:01;5.07;93.97
69503;SHT31;56704;54.242;12.442;2023-12-20T02:49:28;5.05;93.96
69503;SHT31;56704;54.242;12.442;2023-12-20T02:51:55;5.05;93.80
69503;SHT31;56704;54.242;12.442;2023-12-20T02:54:21;5.09;93.80
69503;SHT31;56704;54.242;12.442;2023-12-20T02:56:49;5.14;93.70
69503;SHT31;56704;54.242;12.442;2023-12-20T02:59:16;5.18;93.62
69503;SHT31;56704;54.242;12.442;2023-12-20T03:01:44;5.15;93.49
69503;SHT31;56704;54.242;12.442;2023-12-20T03:04:11;5.18;93.30
69503;SHT31;56704;54.242;12.442;2023-12-20T03:06:37;5.24;93.26
69503;SHT31;56704;54.242;12.442;2023-12-20T03:09:04;5.25;93.19
69503;SHT31;56704;54.242;12.442;2023-12-20T03:11:31;5.27;93.04
69503;SHT31;56704;54.242;12.442;2023-12-20T03:13:59;5.27;92.97
69503;SHT31;56704;54.242;12.442;2023-12-20T03:16:25;5.25;93.02
69503;SHT31;56704;54.242;12.442;2023-12-20T03:18:52;5.27;93.06
69503;SHT31;56704;54.242;12.442;2023-12-20T03:21:18;5.25;92.95
69503;SHT31;56704;54.242;12.442;2023-12-20T03:23:45;5.27;92.69
69503;SHT31;56704;54.242;12.442;2023-12-20T03:26:12;5.25;92.72
69503;SHT31;56704;54.242;12.442;2023-12-20T03:28:38;5.24;92.75
69503;SHT31;56704;54.242;12.442;2023-12-20T03:31:06;5.25;92.86
69503;SHT31;56704;54.242;12.442;2023-12-20T03:33:33;5.24;92.90
69503;SHT31;56704;54.242;12.442;2023-12-20T03:35:59;5.27;92.54
69503;SHT31;56704;54.242;12.442;2023-12-20T03:38:26;5.25;92.59
69503;SHT31;56704;54.242;12.442;2023-12-20T03:40:53;5.29;92.46
69503;SHT31;56704;54.242;12.442;2023-12-20T03:43:20;5.22;92.57
69503;SHT31;56704;54.242;12.442;2023-12-20T03:45:46;5.24;92.63
69503;SHT31;56704;54.242;12.442;2023-12-20T03:48:14;5.19;92.70
69503;SHT31;56704;54.242;12.442;2023-12-20T03:50:41;5.21;92.93
69503;SHT31;56704;54.242;12.442;2023-12-20T03:53:07;5.17;92.84
69503;SHT31;56704;54.242;12.442;2023-12-20T03:55:34;5.14;92.84
69503;SHT31;56704;54.242;12.442;2023-12-20T03:58:00;5.12;92.96
69503;SHT31;56704;54.242;12.442;2023-12-20T04:00:27;5.12;92.95
69503;SHT31;56704;54.242;12.442;2023-12-20T04:02:53;5.15;93.12
69503;SHT31;56704;54.242;12.442;2023-12-20T04:05:21;5.17;93.21
69503;SHT31;56704;54.242;12.442;2023-12-20T04:07:48;5.14;93.15
69503;SHT31;56704;54.242;12.442;2023-12-20T04:10:16;5.18;93.04
69503;SHT31;56704;54.242;12.442;2023-12-20T04:12:42;5.19;92.87
69503;SHT31;56704;54.242;12.442;2023-12-20T04:15:09;5.24;92.83
69503;SHT31;56704;54.242;12.442;2023-12-20T04:17:37;5.24;92.67
69503;SHT31;56704;54.242;12.442;2023-12-20T04:20:05;5.24;92.74
69503;SHT31;56704;54.242;12.442;2023-12-20T04:22:33;5.27;92.64
69503;SHT31;56704;54.242;12.442;2023-12-20T04:24:59;5.31;92.35
69503;SHT31;56704;54.242;12.442;2023-12-20T04:27:26;5.29;92.56
69503;SHT31;56704;54.242;12.442;2023-12-20T04:29:52;5.34;92.27
69503;SHT31;56704;54.242;12.442;2023-12-20T04:32:19;5.36;92.31
69503;SHT31;56704;54.242;12.442;2023-12-20T04:34:45;5.38;91.81
69503;SHT31;56704;54.242;12.442;2023-12-20T04:37:12;5.40;91.65
69503;SHT31;56704;54.242;12.442;2023-12-20T04:39:40;5.43;91.72
69503;SHT31;56704;54.242;12.442;2023-12-20T04:42:07;5.45;91.52
69503;SHT31;56704;54.242;12.442;2023-12-20T04:44:33;5.49;91.40
69503;SHT31;56704;54.242;12.442;2023-12-20T04:47:00;5.49;91.33
69503;SHT31;56704;54.242;12.442;2023-12-20T04:49:27;5.50;91.18
69503;SHT31;56704;54.242;12.442;2023-12-20T04:51:53;5.52;91.34
69503;SHT31;56704;54.242;12.442;2023-12-20T04:54:21;5.55;90.86
69503;SHT31;56704;54.242;12.442;2023-12-20T04:56:49;5.55;90.95
69503;SHT31;56704;54.242;12.442;2023-12-20T04:59:16;5.56;90.85
69503;SHT31;56704;54.242;12.442;2023-12-20T05:01:42;5.55;90.87
69503;SHT31;56704;54.242;12.442;2023-12-20T05:04:09;5.62;90.67
69503;SHT31;56704;54.242;12.442;2023-12-20T05:06:35;5.59;90.91
69503;SHT31;56704;54.242;12.442;2023-12-20T05:09:02;5.63;90.66
69503;SHT31;56704;54.242;12.442;2023-12-20T05:11:29;5.63;90.57
69503;SHT31;56704;54.242;12.442;2023-12-20T05:13:57;5.62;90.62
69503;SHT31;56704;54.242;12.442;2023-12-20T05:16:23;5.66;90.50
69503;SHT31;56704;54.242;12.442;2023-12-20T05:18:51;5.66;90.90
69503;SHT31;56704;54.242;12.442;2023-12-20T05:21:18;5.69;90.52
69503;SHT31;56704;54.242;12.442;2023-12-20T05:23:45;5.66;90.73
69503;SHT31;56704;54.242;12.442;2023-12-20T05:26:12;5.67;90.57
69503;SHT31;56704;54.242;12.442;2023-12-20T05:28:38;5.67;90.63
69503;SHT31;56704;54.242;12.442;2023-12-20T05:31:06;5.66;90.71
69503;SHT31;56704;54.242;12.442;2023-12-20T05:33:33;5.67;90.54
69503;SHT31;56704;54.242;12.442;2023-12-20T05:35:59;5.66;90.44
69503;SHT31;56704;54.242;12.442;2023-12-20T05:38:26;5.70;90.50
69503;SHT31;56704;54.242;12.442;2023-12-20T05:40:53;5.71;90.24
69503;SHT31;56704;54.242;12.442;2023-12-20T05:43:19;5.73;90.16
69503;SHT31;56704;54.242;12.442;2023-12-20T05:45:46;5.71;90.37
69503;SHT31;56704;54.242;12.442;2023-12-20T05:48:14;5.73;90.01
69503;SHT31;56704;54.242;12.442;2023-12-20T05:50:41;5.77;90.37
69503;SHT31;56704;54.242;12.442;2023-12-20T05:53:14;5.74;90.31
69503;SHT31;56704;54.242;12.442;2023-12-20T05:55:41;5.76;90.48
69503;SHT31;56704;54.242;12.442;2023-12-20T05:58:07;5.76;90.41
69503;SHT31;56704;54.242;12.442;2023-12-20T06:00:34;5.74;90.63
69503;SHT31;56704;54.242;12.442;2023-12-20T06:03:00;5.69;90.41
69503;SHT31;56704;54.242;12.442;2023-12-20T06:05:28;5.71;90.23
69503;SHT31;56704;54.242;12.442;2023-12-20T06:07:55;5.69;90.54
69503;SHT31;56704;54.242;12.442;2023-12-20T06:10:23;5.56;91.04
69503;SHT31;56704;54.242;12.442;2023-12-20T06:12:49;5.48;91.24
69503;SHT31;56704;54.242;12.442;2023-12-20T06:15:16;5.40;91.10
69503;SHT31;56704;54.242;12.442;2023-12-20T06:17:43;5.34;91.71
69503;SHT31;56704;54.242;12.442;2023-12-20T06:20:10;5.31;90.79
69503;SHT31;56704;54.242;12.442;2023-12-20T06:22:38;5.19;91.68
69503;SHT31;56704;54.242;12.442;2023-12-20T06:25:05;5.05;91.99
69503;SHT31;56704;54.242;12.442;2023-12-20T06:27:32;5.01;92.67
69503;SHT31;56704;54.242;12.442;2023-12-20T06:29:59;5.02;92.82
69503;SHT31;56704;54.242;12.442;2023-12-20T06:32:25;4.98;93.29
69503;SHT31;56704;54.242;12.442;2023-12-20T06:34:54;4.99;93.49
69503;SHT31;56704;54.242;12.442;2023-12-20T06:37:20;5.02;93.40
69503;SHT31;56704;54.242;12.442;2023-12-20T06:39:48;5.02;93.44
69503;SHT31;56704;54.242;12.442;2023-12-20T06:42:18;5.05;93.34
69503;SHT31;56704;54.242;12.442;2023-12-20T06:44:44;5.02;93.59
69503;SHT31;56704;54.242;12.442;2023-12-20T06:47:11;5.01;93.70
69503;SHT31;56704;54.242;12.442;2023-12-20T06:49:39;5.04;93.78
69503;SHT31;56704;54.242;12.442;2023-12-20T06:52:06;5.05;93.77
69503;SHT31;56704;54.242;12.442;2023-12-20T06:54:32;5.08;93.47
69503;SHT31;56704;54.242;12.442;2023-12-20T06:57:01;5.11;93.36
69503;SHT31;56704;54.242;12.442;2023-12-20T06:59:28;5.08;93.46
69503;SHT31;56704;54.242;12.442;2023-12-20T07:01:55;5.14;93.12
69503;SHT31;56704;54.242;12.442;2023-12-20T07:04:21;5.14;93.17
69503;SHT31;56704;54.242;12.442;2023-12-20T07:06:48;5.17;93.29
69503;SHT31;56704;54.242;12.442;2023-12-20T07:09:16;5.09;93.45
69503;SHT31;56704;54.242;12.442;2023-12-20T07:11:43;5.11;93.57
69503;SHT31;56704;54.242;12.442;2023-12-20T07:14:11;5.09;93.78
69503;SHT31;56704;54.242;12.442;2023-12-20T07:16:37;5.08;93.98
69503;SHT31;56704;54.242;12.442;2023-12-20T07:19:04;5.09;94.04
69503;SHT31;56704;54.242;12.442;2023-12-20T07:21:30;5.05;94.31
69503;SHT31;56704;54.242;12.442;2023-12-20T07:23:57;5.01;94.29
69503;SHT31;56704;54.242;12.442;2023-12-20T07:26:24;4.97;94.58
69503;SHT31;56704;54.242;12.442;2023-12-20T07:28:50;4.98;94.64
69503;SHT31;56704;54.242;12.442;2023-12-20T07:31:18;4.94;94.66
69503;SHT31;56704;54.242;12.442;2023-12-20T07:33:45;4.95;94.77
69503;SHT31;56704;54.242;12.442;2023-12-20T07:36:12;4.94;94.75
69503;SHT31;56704;54.242;12.442;2023-12-20T07:38:39;4.95;94.41
69503;SHT31;56704;54.242;12.442;2023-12-20T07:41:09;4.95;94.49
69503;SHT31;56704;54.242;12.442;2023-12-20T07:43:35;4.92;94.56
69503;SHT31;56704;54.242;12.442;2023-12-20T07:46:05;4.94;94.59
69503;SHT31;56704;54.242;12.442;2023-12-20T07:48:33;4.92;94.43
69503;SHT31;56704;54.242;12.442;2023-12-20T07:51:00;4.95;94.37
69503;SHT31;56704;54.242;12.442;2023-12-20T07:53:27;4.92;94.38
69503;SHT31;56704;54.242;12.442;2023-12-20T07:55:53;4.98;94.15
69503;SHT31;56704;54.242;12.442;2023-12-20T07:58:20;4.95;94.17
69503;SHT31;56704;54.242;12.442;2023-12-20T08:00:47;5.01;94.11
69503;SHT31;56704;54.242;12.442;2023-12-20T08:03:14;5.05;93.74
69503;SHT31;56704;54.242;12.442;2023-12-20T08:05:41;5.05;93.79
69503;SHT31;56704;54.242;12.442;2023-12-20T08:08:08;5.11;93.25
69503;SHT31;56704;54.242;12.442;2023-12-20T08:10:35;5.05;93.60
69503;SHT31;56704;54.242;12.442;2023-12-20T08:13:02;5.09;93.61
69503;SHT31;56704;54.242;12.442;2023-12-20T08:15:28;5.05;93.47
69503;SHT31;56704;54.242;12.442;2023-12-20T08:17:55;5.01;93.50
69503;SHT31;56704;54.242;12.442;2023-12-20T08:20:21;4.98;93.89
69503;SHT31;56704;54.242;12.442;2023-12-20T08:22:49;5.02;93.95
69503;SHT31;56704;54.242;12.442;2023-12-20T08:25:16;5.04;94.06
69503;SHT31;56704;54.242;12.442;2023-12-20T08:27:42;5.07;93.67
69503;SHT31;56704;54.242;12.442;2023-12-20T08:30:10;5.04;94.00
69503;SHT31;56704;54.242;12.442;2023-12-20T08:32:37;5.07;94.06
69503;SHT31;56704;54.242;12.442;2023-12-20T08:35:05;5.04;94.20
69503;SHT31;56704;54.242;12.442;2023-12-20T08:37:31;5.01;94.31
69503;SHT31;56704;54.242;12.442;2023-12-20T08:39:59;4.99;94.42
69503;SHT31;56704;54.242;12.442;2023-12-20T08:42:26;5.01;93.99
69503;SHT31;56704;54.242;12.442;2023-12-20T08:44:56;4.98;93.87
69503;SHT31;56704;54.242;12.442;2023-12-20T08:47:23;4.95;94.12
69503;SHT31;56704;54.242;12.442;2023-12-20T08:49:50;4.87;94.16
69503;SHT31;56704;54.242;12.442;2023-12-20T08:52:17;4.80;94.28
69503;SHT31;56704;54.242;12.442;2023-12-20T08:54:44;4.83;94.04
69503;SHT31;56704;54.242;12.442;2023-12-20T08:57:12;4.83;94.20
69503;SHT31;56704;54.242;12.442;2023-12-20T08:59:39;4.77;94.26
69503;SHT31;56704;54.242;12.442;2023-12-20T09:02:05;4.77;94.19
69503;SHT31;56704;54.242;12.442;2023-12-20T09:04:32;4.73;94.18
69503;SHT31;56704;54.242;12.442;2023-12-20T09:06:59;4.71;94.06
69503;SHT31;56704;54.242;12.442;2023-12-20T09:09:26;4.76;93.97
69503;SHT31;56704;54.242;12.442;2023-12-20T09:11:53;4.70;94.04
69503;SHT31;56704;54.242;12.442;2023-12-20T09:14:21;4.74;94.27
69503;SHT31;56704;54.242;12.442;2023-12-20T09:16:47;4.73;94.23
69503;SHT31;56704;54.242;12.442;2023-12-20T09:19:16;4.77;94.08
69503;SHT31;56704;54.242;12.442;2023-12-20T09:21:43;4.80;93.99
69503;SHT31;56704;54.242;12.442;2023-12-20T09:24:09;4.85;93.92
69503;SHT31;56704;54.242;12.442;2023-12-20T09:26:36;4.89;93.58
69503;SHT31;56704;54.242;12.442;2023-12-20T09:29:03;4.89;93.61
69503;SHT31;56704;54.242;12.442;2023-12-20T09:31:31;4.95;93.44
69503;SHT31;56704;54.242;12.442;2023-12-20T09:33:57;4.94;93.34
69503;SHT31;56704;54.242;12.442;2023-12-20T09:36:24;4.89;93.38
69503;SHT31;56704;54.242;12.442;2023-12-20T09:38:50;5.14;93.26
69503;SHT31;56704;54.242;12.442;2023-12-20T09:41:17;5.29;92.89
69503;SHT31;56704;54.242;12.442;2023-12-20T09:43:44;5.28;92.55
69503;SHT31;56704;54.242;12.442;2023-12-20T09:46:12;5.32;92.22
69503;SHT31;56704;54.242;12.442;2023-12-20T09:48:43;5.36;91.40
69503;SHT31;56704;54.242;12.442;2023-12-20T09:51:10;5.38;91.89
69503;SHT31;56704;54.242;12.442;2023-12-20T09:53:38;5.38;91.56
69503;SHT31;56704;54.242;12.442;2023-12-20T09:56:06;5.39;91.80
69503;SHT31;56704;54.242;12.442;2023-12-20T09:58:36;5.36;92.01
69503;SHT31;56704;54.242;12.442;2023-12-20T10:01:03;5.35;92.31
69503;SHT31;56704;54.242;12.442;2023-12-20T10:03:31;5.35;92.29
69503;SHT31;56704;54.242;12.442;2023-12-20T10:06:00;5.35;92.45
69503;SHT31;56704;54.242;12.442;2023-12-20T10:08:27;5.38;92.20
69503;SHT31;56704;54.242;12.442;2023-12-20T10:10:55;5.32;92.47
69503;SHT31;56704;54.242;12.442;2023-12-20T10:13:22;5.29;92.05
69503;SHT31;56704;54.242;12.442;2023-12-20T10:15:49;5.32;92.11
69503;SHT31;56704;54.242;12.442;2023-12-20T10:18:16;5.34;91.37
69503;SHT31;56704;54.242;12.442;2023-12-20T10:20:43;5.34;91.81
69503;SHT31;56704;54.242;12.442;2023-12-20T10:23:12;5.28;91.64
69503;SHT31;56704;54.242;12.442;2023-12-20T10:25:39;5.22;91.96
69503;SHT31;56704;54.242;12.442;2023-12-20T10:28:10;5.17;92.17
69503;SHT31;56704;54.242;12.442;2023-12-20T10:30:38;5.11;92.48
69503;SHT31;56704;54.242;12.442;2023-12-20T10:33:05;5.07;92.84
69503;SHT31;56704;54.242;12.442;2023-12-20T10:35:33;5.05;93.08
69503;SHT31;56704;54.242;12.442;2023-12-20T10:38:02;5.02;92.92
69503;SHT31;56704;54.242;12.442;2023-12-20T10:40:31;5.04;93.16
69503;SHT31;56704;54.242;12.442;2023-12-20T10:42:59;5.01;93.56
69503;SHT31;56704;54.242;12.442;2023-12-20T10:45:27;5.01;93.45
69503;SHT31;56704;54.242;12.442;2023-12-20T10:47:54;5.01;93.47
69503;SHT31;56704;54.242;12.442;2023-12-20T10:50:22;5.01;93.93
69503;SHT31;56704;54.242;12.442;2023-12-20T10:52:50;5.02;93.85
69503;SHT31;56704;54.242;12.442;2023-12-20T10:55:20;5.05;93.91
69503;SHT31;56704;54.242;12.442;2023-12-20T10:57:49;5.05;93.75
69503;SHT31;56704;54.242;12.442;2023-12-20T11:00:18;5.04;93.89
69503;SHT31;56704;54.242;12.442;2023-12-20T11:02:45;5.09;93.95
69503;SHT31;56704;54.242;12.442;2023-12-20T11:05:23;5.14;93.95
69503;SHT31;56704;54.242;12.442;2023-12-20T11:07:57;5.15;94.05
69503;SHT31;56704;54.242;12.442;2023-12-20T11:10:28;5.19;93.66
69503;SHT31;56704;54.242;12.442;2023-12-20T11:13:03;5.18;93.93
69503;SHT31;56704;54.242;12.442;2023-12-20T11:15:35;5.22;94.12
69503;SHT31;56704;54.242;12.442;2023-12-20T11:18:02;5.22;94.04
69503;SHT31;56704;54.242;12.442;2023-12-20T11:20:36;5.14;93.86
69503;SHT31;56704;54.242;12.442;2023-12-20T11:23:04;5.07;94.14
69503;SHT31;56704;54.242;12.442;2023-12-20T11:25:46;5.01;94.34
69503;SHT31;56704;54.242;12.442;2023-12-20T11:28:14;5.02;94.20
69503;SHT31;56704;54.242;12.442;2023-12-20T11:30:46;5.07;93.84
69503;SHT31;56704;54.242;12.442;2023-12-20T11:33:14;5.11;93.58
69503;SHT31;56704;54.242;12.442;2023-12-20T11:35:41;5.05;93.75
69503;SHT31;56704;54.242;12.442;2023-12-20T11:38:08;5.01;93.40
69503;SHT31;56704;54.242;12.442;2023-12-20T11:40:35;5.04;93.22
69503;SHT31;56704;54.242;12.442;2023-12-20T11:43:02;5.22;92.84
69503;SHT31;56704;54.242;12.442;2023-12-20T11:45:31;5.74;92.17
69503;SHT31;56704;54.242;12.442;2023-12-20T11:47:57;5.96;91.09
69503;SHT31;56704;54.242;12.442;2023-12-20T11:50:24;6.16;90.16
69503;SHT31;56704;54.242;12.442;2023-12-20T11:52:52;6.30;89.86
69503;SHT31;56704;54.242;12.442;2023-12-20T11:55:19;6.44;89.46
69503;SHT31;56704;54.242;12.442;2023-12-20T11:57:45;6.31;89.53
69503;SHT31;56704;54.242;12.442;2023-12-20T12:00:13;5.90;89.28
69503;SHT31;56704;54.242;12.442;2023-12-20T12:02:41;5.80;89.98
69503;SHT31;56704;54.242;12.442;2023-12-20T12:05:08;5.60;89.67
69503;SHT31;56704;54.242;12.442;2023-12-20T12:07:35;5.48;89.62
69503;SHT31;56704;54.242;12.442;2023-12-20T12:10:02;5.50;89.90
69503;SHT31;56704;54.242;12.442;2023-12-20T12:12:29;5.49;89.56
69503;SHT31;56704;54.242;12.442;2023-12-20T12:14:57;5.45;90.13
69503;SHT31;56704;54.242;12.442;2023-12-20T12:17:24;5.38;90.00
69503;SHT31;56704;54.242;12.442;2023-12-20T12:20:02;5.40;90.36
69503;SHT31;56704;54.242;12.442;2023-12-20T12:22:29;5.40;90.84
69503;SHT31;56704;54.242;12.442;2023-12-20T12:24:59;5.36;90.38
69503;SHT31;56704;54.242;12.442;2023-12-20T12:27:25;5.34;90.09
69503;SHT31;56704;54.242;12.442;2023-12-20T12:30:03;5.32;90.31
69503;SHT31;56704;54.242;12.442;2023-12-20T12:32:32;5.36;90.61
69503;SHT31;56704;54.242;12.442;2023-12-20T12:35:02;5.34;90.59
69503;SHT31;56704;54.242;12.442;2023-12-20T12:37:29;5.32;90.28
69503;SHT31;56704;54.242;12.442;2023-12-20T12:39:55;5.29;88.74
69503;SHT31;56704;54.242;12.442;2023-12-20T12:42:23;5.43;88.56
69503;SHT31;56704;54.242;12.442;2023-12-20T12:44:53;5.46;88.42
69503;SHT31;56704;54.242;12.442;2023-12-20T12:47:20;5.39;87.82
69503;SHT31;56704;54.242;12.442;2023-12-20T12:49:47;5.39;88.01
69503;SHT31;56704;54.242;12.442;2023-12-20T12:52:15;5.40;88.55
69503;SHT31;56704;54.242;12.442;2023-12-20T12:54:41;5.39;88.35
69503;SHT31;56704;54.242;12.442;2023-12-20T12:57:10;5.48;88.49
69503;SHT31;56704;54.242;12.442;2023-12-20T12:59:36;5.46;88.49
69503;SHT31;56704;54.242;12.442;2023-12-20T13:02:03;5.40;88.91
69503;SHT31;56704;54.242;12.442;2023-12-20T13:04:30;5.39;89.18
69503;SHT31;56704;54.242;12.442;2023-12-20T13:06:57;5.40;89.42
69503;SHT31;56704;54.242;12.442;2023-12-20T13:09:25;5.52;89.44
69503;SHT31;56704;54.242;12.442;2023-12-20T13:11:51;5.53;87.85
69503;SHT31;56704;54.242;12.442;2023-12-20T13:14:18;5.45;88.41
69503;SHT31;56704;54.242;12.442;2023-12-20T13:16:44;5.46;87.71
69503;SHT31;56704;54.242;12.442;2023-12-20T13:19:11;5.49;88.20
69503;SHT31;56704;54.242;12.442;2023-12-20T13:21:38;5.46;88.32
69503;SHT31;56704;54.242;12.442;2023-12-20T13:24:05;5.52;88.95
69503;SHT31;56704;54.242;12.442;2023-12-20T13:26:33;5.42;88.17
69503;SHT31;56704;54.242;12.442;2023-12-20T13:29:00;5.39;88.68
69503;SHT31;56704;54.242;12.442;2023-12-20T13:31:26;5.39;88.91
69503;SHT31;56704;54.242;12.442;2023-12-20T13:33:53;5.46;88.00
69503;SHT31;56704;54.242;12.442;2023-12-20T13:36:20;5.45;88.71
69503;SHT31;56704;54.242;12.442;2023-12-20T13:38:47;5.40;88.57
69503;SHT31;56704;54.242;12.442;2023-12-20T13:41:13;5.39;88.68
69503;SHT31;56704;54.242;12.442;2023-12-20T13:43:41;5.36;88.80
69503;SHT31;56704;54.242;12.442;2023-12-20T13:46:09;5.39;88.32
69503;SHT31;56704;54.242;12.442;2023-12-20T13:48:35;5.40;88.33
69503;SHT31;56704;54.242;12.442;2023-12-20T13:51:02;5.43;87.90
69503;SHT31;56704;54.242;12.442;2023-12-20T13:53:29;5.49;86.21
69503;SHT31;56704;54.242;12.442;2023-12-20T13:55:55;5.48;87.53
69503;SHT31;56704;54.242;12.442;2023-12-20T13:58:23;5.43;87.28
69503;SHT31;56704;54.242;12.442;2023-12-20T14:00:51;5.40;87.81
69503;SHT31;56704;54.242;12.442;2023-12-20T14:03:17;5.36;87.74
69503;SHT31;56704;54.242;12.442;2023-12-20T14:05:45;5.39;86.79
69503;SHT31;56704;54.242;12.442;2023-12-20T14:08:11;5.42;87.92
69503;SHT31;56704;54.242;12.442;2023-12-20T14:10:38;5.42;87.24
69503;SHT31;56704;54.242;12.442;2023-12-20T14:13:05;5.49;86.85
69503;SHT31;56704;54.242;12.442;2023-12-20T14:15:31;5.45;87.10
69503;SHT31;56704;54.242;12.442;2023-12-20T14:18:04;5.45;86.44
69503;SHT31;56704;54.242;12.442;2023-12-20T14:20:32;5.46;87.35
69503;SHT31;56704;54.242;12.442;2023-12-20T14:22:59;5.46;86.86
69503;SHT31;56704;54.242;12.442;2023-12-20T14:25:26;5.42;86.58
69503;SHT31;56704;54.242;12.442;2023-12-20T14:27:53;5.38;87.45
69503;SHT31;56704;54.242;12.442;2023-12-20T14:30:19;5.29;87.55
69503;SHT31;56704;54.242;12.442;2023-12-20T14:32:46;5.22;87.15
69503;SHT31;56704;54.242;12.442;2023-12-20T14:35:14;5.19;87.44
69503;SHT31;56704;54.242;12.442;2023-12-20T14:37:41;5.15;86.82
69503;SHT31;56704;54.242;12.442;2023-12-20T14:40:09;5.09;86.83
69503;SHT31;56704;54.242;12.442;2023-12-20T14:42:40;5.08;86.32
69503;SHT31;56704;54.242;12.442;2023-12-20T14:45:07;5.04;86.59
69503;SHT31;56704;54.242;12.442;2023-12-20T14:47:34;5.04;85.64
69503;SHT31;56704;54.242;12.442;2023-12-20T14:50:02;5.04;85.90
69503;SHT31;56704;54.242;12.442;2023-12-20T14:52:30;4.95;86.00
69503;SHT31;56704;54.242;12.442;2023-12-20T14:54:57;4.97;85.45
69503;SHT31;56704;54.242;12.442;2023-12-20T14:57:24;4.98;85.30
69503;SHT31;56704;54.242;12.442;2023-12-20T14:59:51;4.95;85.64
69503;SHT31;56704;54.242;12.442;2023-12-20T15:02:18;4.91;85.90
69503;SHT31;56704;54.242;12.442;2023-12-20T15:04:45;4.85;85.71
69503;SHT31;56704;54.242;12.442;2023-12-20T15:07:11;4.91;86.05
69503;SHT31;56704;54.242;12.442;2023-12-20T15:09:39;4.85;86.21
69503;SHT31;56704;54.242;12.442;2023-12-20T15:12:11;4.81;86.62
69503;SHT31;56704;54.242;12.442;2023-12-20T15:14:37;4.87;85.98
69503;SHT31;56704;54.242;12.442;2023-12-20T15:17:04;4.84;86.96
69503;SHT31;56704;54.242;12.442;2023-12-20T15:19:31;4.83;86.79
69503;SHT31;56704;54.242;12.442;2023-12-20T15:21:57;4.85;86.62
69503;SHT31;56704;54.242;12.442;2023-12-20T15:24:25;4.83;86.78
69503;SHT31;56704;54.242;12.442;2023-12-20T15:26:55;4.84;86.59
69503;SHT31;56704;54.242;12.442;2023-12-20T15:29:21;4.87;86.85